ADDS METAR Data INFO
IDs: Format: Raw Decoded Include TAF

Data at: 0208 UTC 21 Apr 2018

KLHB 210155Z AUTO 00000KT 10SM CLR 15/08 A3011 RMK AO2 T01450077
KLHB 210135Z AUTO 00000KT 10SM CLR 15/08 A3011 RMK AO2 T01490075
KLHB 210115Z AUTO 11003KT 10SM CLR 16/08 A3011 RMK AO2 T01550075
KLHB 210055Z AUTO 12003KT 10SM CLR 16/07 A3011 RMK AO2 T01630074
KLHB 210035Z AUTO 13006KT 10SM CLR 17/07 A3012 RMK AO2 T01710071
KLHB 210015Z AUTO 13007KT 10SM CLR 18/07 A3011 RMK AO2 T01760069
KLHB 202355Z AUTO 14009KT 10SM CLR 18/07 A3012 RMK AO2 T01800070 10201 20174
KLHB 202335Z AUTO 12007G14KT 10SM CLR 19/07 A3011 RMK AO2 T01850069
KLHB 202315Z AUTO 11007KT 10SM CLR 19/07 A3011 RMK AO2 T01860068
KLHB 202255Z AUTO 12007KT 10SM CLR 19/07 A3012 RMK AO2 T01920070
KLHB 202235Z AUTO 12009KT 10SM CLR 19/07 A3013 RMK AO2 T01920066
KLHB 202215Z AUTO 11008KT 10SM CLR 20/07 A3013 RMK AO2 T01960067
KLHB 202155Z AUTO 11005KT 10SM CLR 20/07 A3013 RMK AO2 T01950065
KLHB 202135Z AUTO 13007KT 10SM CLR 19/06 A3014 RMK AO2 T01920061
KLHB 202115Z AUTO 13006KT 10SM CLR 20/06 A3015 RMK AO2 T01970062
KLHB 202055Z AUTO 11006KT 10SM CLR 20/07 A3016 RMK AO2 T01960067
KLHB 202035Z AUTO 07005KT 10SM CLR 19/06 A3016 RMK AO2 T01930064
KLHB 202015Z AUTO 09005KT 10SM CLR 19/06 A3017 RMK AO2 T01900061
KLHB 201955Z AUTO 07005KT 10SM CLR 19/06 A3018 RMK AO2 T01880061
KLHB 201935Z AUTO 11007KT 10SM CLR 18/06 A3018 RMK AO2 T01790060
KLHB 201915Z AUTO 10008KT 10SM CLR 19/06 A3020 RMK AO2 T01850062
KLHB 201855Z AUTO 10007KT 10SM CLR 17/05 A3021 RMK AO2 T01740054
KLHB 201835Z AUTO 09008KT 10SM CLR 18/06 A3023 RMK AO2 T01790060
KLHB 201815Z AUTO 10007KT 10SM CLR 18/06 A3024 RMK AO2 T01800063
KLHB 201755Z AUTO 07007G14KT 030V090 10SM CLR 17/06 A3024 RMK AO2 T01730056 10174 20111
KLHB 201735Z AUTO 11006KT 10SM CLR 17/06 A3026 RMK AO2 T01650059
KLHB 201715Z AUTO 12005KT 10SM CLR 16/06 A3028 RMK AO2 T01580057
KLHB 201655Z AUTO 10008KT 080V140 10SM CLR 17/06 A3029 RMK AO2 T01660061
KLHB 201635Z AUTO 11007KT 10SM CLR 15/06 A3030 RMK AO2 T01540058
KLHB 201615Z AUTO 11006KT 10SM CLR 15/05 A3030 RMK AO2 T01490053
KLHB 201555Z AUTO 09007KT 10SM CLR 15/05 A3030 RMK AO2 T01460050
KLHB 201535Z AUTO 10008G14KT 10SM CLR 15/05 A3030 RMK AO2 T01480051
KLHB 201515Z AUTO 09009KT 10SM CLR 14/05 A3030 RMK AO2 T01440053
KLHB 201455Z AUTO 08007KT 050V110 10SM CLR 14/06 A3030 RMK AO2 T01360055
KLHB 201435Z AUTO 08010G14KT 10SM CLR 13/06 A3028 RMK AO2 T01270057
KLHB 201415Z AUTO 08005KT 10SM CLR 13/06 A3030 RMK AO2 T01250063
KLHB 201400Z AUTO 08004KT 10SM CLR 12/07 A3031 RMK AO2 T01180065
KLHB 201335Z AUTO 09004KT 10SM CLR 11/07 A3029 RMK AO2 T01130065
KLHB 201315Z AUTO 08004KT 10SM CLR 11/06 A3028 RMK AO2 T01120064
KLHB 201255Z AUTO 09008KT 10SM CLR 11/06 A3028 RMK AO2 T01110063
KLHB 201235Z AUTO 09005KT 10SM CLR 11/07 A3028 RMK AO2 T01120065
KLHB 201215Z AUTO 09007KT 10SM CLR 11/06 A3027 RMK AO2 T01120064
KLHB 201155Z AUTO 09007KT 10SM CLR 11/07 A3025 RMK AO2 T01120066 10126 20112
KLHB 201135Z AUTO 09006KT 10SM CLR 11/07 A3025 RMK AO2 T01130065
KLHB 201115Z AUTO 09006KT 10SM CLR 12/06 A3025 RMK AO2 T01150063
KLHB 201055Z AUTO 07008G14KT 10SM CLR 12/06 A3023 RMK AO2 T01170060
KLHB 201035Z AUTO 07008G14KT 10SM CLR 12/06 A3023 RMK AO2 T01200060
KLHB 201015Z AUTO 07011KT 10SM CLR 12/06 A3023 RMK AO2 T01210060
KLHB 200955Z AUTO 06007KT 10SM CLR 12/06 A3022 RMK AO2 T01240056
KLHB 200935Z AUTO 06008KT 10SM CLR 13/06 A3023 RMK AO2 T01260055
KLHB 200915Z AUTO 06004KT 10SM CLR 13/06 A3023 RMK AO2 T01250056
KLHB 200855Z AUTO 06004KT 10SM CLR 13/06 A3023 RMK AO2 T01250055
KLHB 200835Z AUTO 06003KT 10SM CLR 12/06 A3023 RMK AO2 T01230055
KLHB 200815Z AUTO 05004KT 10SM CLR 12/05 A3023 RMK AO2 T01240053
KLHB 200755Z AUTO 05005KT 10SM CLR 12/06 A3022 RMK AO2 T01220055
KLHB 200735Z AUTO 06003KT 10SM CLR 12/05 A3024 RMK AO2 T01240052
KLHB 200715Z AUTO 04004KT 10SM CLR 12/06 A3024 RMK AO2 T01230055
KLHB 200655Z AUTO 03003KT 10SM CLR 12/06 A3023 RMK AO2 T01180055
KLHB 200635Z AUTO 03003KT 10SM CLR 11/06 A3024 RMK AO2 T01130060
KLHB 200615Z AUTO 00000KT 10SM CLR 12/06 A3025 RMK AO2 T01200058
KLHB 200555Z AUTO 00000KT 10SM CLR 12/06 A3025 RMK AO2 T01190062 10200 20117 402310099
KLHB 200535Z AUTO 00000KT 10SM CLR 12/06 A3024 RMK AO2 T01180061
KLHB 200515Z AUTO 00000KT 10SM CLR 12/06 A3024 RMK AO2 T01200061
KLHB 200455Z AUTO 01003KT 10SM CLR 12/06 A3024 RMK AO2 T01220060
KLHB 200435Z AUTO 02004KT 10SM CLR 13/06 A3025 RMK AO2 T01250058
KLHB 200415Z AUTO 02003KT 10SM CLR 13/06 A3026 RMK AO2 T01300057
KLHB 200355Z AUTO 01005KT 10SM CLR 14/06 A3026 RMK AO2 T01370055
KLHB 200335Z AUTO 01006KT 10SM CLR 14/05 A3026 RMK AO2 T01410054
KLHB 200315Z AUTO 01004KT 10SM CLR 14/05 A3026 RMK AO2 T01420054
KLHB 200255Z AUTO 01004KT 10SM CLR 13/06 A3026 RMK AO2 T01300055
KLHB 200235Z AUTO 36003KT 10SM CLR 13/06 A3026 RMK AO2 T01260059
KLHB 200215Z AUTO 00000KT 10SM CLR 13/06 A3025 RMK AO2 T01320061
KLHB 200155Z AUTO 00000KT 10SM CLR 14/06 A3025 RMK AO2 T01440061
KLHB 200135Z AUTO 00000KT 10SM CLR 15/06 A3024 RMK AO2 T01510058
KLHB 200115Z AUTO 34003KT 10SM CLR 16/06 A3024 RMK AO2 T01580058
KLHB 200055Z AUTO 33004KT 10SM CLR 16/06 A3024 RMK AO2 T01610061
KLHB 200035Z AUTO 00000KT 10SM CLR 19/05 A3024 RMK AO2 T01860046
KLHB 200015Z AUTO 01005KT 10SM CLR 20/04 A3024 RMK AO2 T01960042
KLHB 192355Z AUTO 36006KT 10SM CLR 20/05 A3024 RMK AO2 T02010053 10231 20200
KLHB 192335Z AUTO 34008KT 10SM CLR 20/05 A3024 RMK AO2 T02040053
KLHB 192315Z AUTO 36010KT 10SM CLR 21/05 A3023 RMK AO2 T02100054
KLHB 192255Z AUTO 34011KT 10SM CLR 20/06 A3024 RMK AO2 T02040056
KLHB 192235Z AUTO 36008KT 10SM CLR 21/04 A3024 RMK AO2 T02100039
KLHB 192215Z AUTO 36011KT 10SM CLR 22/04 A3024 RMK AO2 T02210038
KLHB 192155Z AUTO 34011KT 10SM CLR 22/04 A3025 RMK AO2 T02240038
KLHB 192135Z AUTO 35013G17KT 10SM CLR 23/04 A3024 RMK AO2 T02250035
KLHB 192115Z AUTO 36010G14KT 10SM CLR 22/03 A3025 RMK AO2 T02240032
KLHB 192055Z AUTO 35009G15KT 10SM CLR 22/03 A3026 RMK AO2 T02230032
KLHB 192035Z AUTO 03008G16KT 10SM CLR 22/03 A3027 RMK AO2 T02230027
KLHB 192015Z AUTO 02011G17KT 10SM CLR 23/04 A3028 RMK AO2 T02290040
KLHB 191955Z AUTO 01012G17KT 10SM CLR 23/04 A3028 RMK AO2 T02290040
KLHB 191935Z AUTO 34015G18KT 10SM CLR 23/03 A3029 RMK AO2 T02310031
KLHB 191915Z AUTO 03010G17KT 10SM CLR 23/04 A3029 RMK AO2 T02260035
KLHB 191855Z AUTO 35015G22KT 10SM CLR 23/03 A3031 RMK AO2 T02280031
KLHB 191835Z AUTO 03010G19KT 10SM CLR 22/03 A3032 RMK AO2 T02210025
KLHB 191815Z AUTO 01010G21KT 10SM CLR 22/03 A3032 RMK AO2 T02220026
KLHB 191755Z AUTO 03012G17KT 10SM CLR 22/03 A3033 RMK AO2 T02190029 10219 20125
KLHB 191735Z AUTO 36010G16KT 10SM CLR 22/03 A3034 RMK AO2 T02150030
KLHB 191715Z AUTO 36012G18KT 10SM CLR 21/03 A3034 RMK AO2 T02140028
KLHB 191655Z AUTO 02011G15KT 10SM CLR 21/03 A3034 RMK AO2 T02090026
KLHB 191635Z AUTO 02010G16KT 10SM CLR 21/02 A3035 RMK AO2 T02070023
KLHB 191615Z AUTO 01009G14KT 10SM CLR 20/02 A3034 RMK AO2 T02030020
KLHB 191555Z AUTO 02008KT 10SM CLR 20/02 A3035 RMK AO2 T01980018
KLHB 191535Z AUTO 01008G16KT 10SM CLR 19/02 A3034 RMK AO2 T01930016
KLHB 191515Z AUTO 02011G16KT 10SM CLR 19/01 A3033 RMK AO2 T01870012
KLHB 191455Z AUTO 03009G20KT 10SM CLR 18/02 A3034 RMK AO2 T01800015
KLHB 191435Z AUTO 03011KT 10SM CLR 17/01 A3033 RMK AO2 T01720013
KLHB 191415Z AUTO 03010G15KT 10SM CLR 16/01 A3033 RMK AO2 T01630009